sensor_id;sensor_type;location;lat;lon;timestamp;P1;durP1;ratioP1;P2;durP2;ratioP2
54517;SDS011;40423;53.176;6.002;2022-11-13T00:00:54;14.73;;;11.55;;
54517;SDS011;40423;53.176;6.002;2022-11-13T00:03:20;17.33;;;13.52;;
54517;SDS011;40423;53.176;6.002;2022-11-13T00:05:46;15.35;;;12.60;;
54517;SDS011;40423;53.176;6.002;2022-11-13T00:08:12;22.70;;;16.75;;
54517;SDS011;40423;53.176;6.002;2022-11-13T00:10:39;20.40;;;15.63;;
54517;SDS011;40423;53.176;6.002;2022-11-13T00:13:04;32.40;;;23.52;;
54517;SDS011;40423;53.176;6.002;2022-11-13T00:15:30;21.42;;;15.40;;
54517;SDS011;40423;53.176;6.002;2022-11-13T00:17:59;16.88;;;14.25;;
54517;SDS011;40423;53.176;6.002;2022-11-13T00:20:26;16.85;;;13.85;;
54517;SDS011;40423;53.176;6.002;2022-11-13T00:22:51;16.73;;;13.30;;
54517;SDS011;40423;53.176;6.002;2022-11-13T00:25:17;26.08;;;19.45;;
54517;SDS011;40423;53.176;6.002;2022-11-13T00:27:43;24.25;;;17.98;;
54517;SDS011;40423;53.176;6.002;2022-11-13T00:30:08;32.70;;;22.48;;
54517;SDS011;40423;53.176;6.002;2022-11-13T00:32:34;29.52;;;21.65;;
54517;SDS011;40423;53.176;6.002;2022-11-13T00:35:02;28.15;;;21.95;;
54517;SDS011;40423;53.176;6.002;2022-11-13T00:37:28;29.33;;;22.20;;
54517;SDS011;40423;53.176;6.002;2022-11-13T00:39:54;31.48;;;21.63;;
54517;SDS011;40423;53.176;6.002;2022-11-13T00:42:20;31.27;;;21.85;;
54517;SDS011;40423;53.176;6.002;2022-11-13T00:44:45;33.08;;;23.30;;
54517;SDS011;40423;53.176;6.002;2022-11-13T00:47:11;34.40;;;24.92;;
54517;SDS011;40423;53.176;6.002;2022-11-13T00:49:37;25.17;;;19.27;;
54517;SDS011;40423;53.176;6.002;2022-11-13T00:52:02;24.75;;;18.42;;
54517;SDS011;40423;53.176;6.002;2022-11-13T00:54:28;36.20;;;26.00;;
54517;SDS011;40423;53.176;6.002;2022-11-13T00:56:54;25.55;;;21.20;;
54517;SDS011;40423;53.176;6.002;2022-11-13T00:59:19;42.30;;;27.88;;
54517;SDS011;40423;53.176;6.002;2022-11-13T01:01:45;27.80;;;20.08;;
54517;SDS011;40423;53.176;6.002;2022-11-13T01:04:11;31.40;;;23.58;;
54517;SDS011;40423;53.176;6.002;2022-11-13T01:06:36;38.85;;;26.88;;
54517;SDS011;40423;53.176;6.002;2022-11-13T01:09:02;29.45;;;21.65;;
54517;SDS011;40423;53.176;6.002;2022-11-13T01:11:29;21.52;;;16.60;;
54517;SDS011;40423;53.176;6.002;2022-11-13T01:13:55;29.98;;;22.42;;
54517;SDS011;40423;53.176;6.002;2022-11-13T01:16:23;30.10;;;22.48;;
54517;SDS011;40423;53.176;6.002;2022-11-13T01:18:49;36.08;;;24.95;;
54517;SDS011;40423;53.176;6.002;2022-11-13T01:21:18;27.27;;;21.55;;
54517;SDS011;40423;53.176;6.002;2022-11-13T01:23:46;26.80;;;21.48;;
54517;SDS011;40423;53.176;6.002;2022-11-13T01:26:17;31.95;;;24.27;;
54517;SDS011;40423;53.176;6.002;2022-11-13T01:28:45;30.05;;;21.20;;
54517;SDS011;40423;53.176;6.002;2022-11-13T01:31:13;26.92;;;20.25;;
54517;SDS011;40423;53.176;6.002;2022-11-13T01:33:41;29.92;;;21.70;;
54517;SDS011;40423;53.176;6.002;2022-11-13T01:36:09;32.88;;;23.58;;
54517;SDS011;40423;53.176;6.002;2022-11-13T01:38:39;30.45;;;22.83;;
54517;SDS011;40423;53.176;6.002;2022-11-13T01:41:05;28.50;;;21.63;;
54517;SDS011;40423;53.176;6.002;2022-11-13T01:43:33;29.77;;;23.10;;
54517;SDS011;40423;53.176;6.002;2022-11-13T01:46:04;27.25;;;19.58;;
54517;SDS011;40423;53.176;6.002;2022-11-13T01:48:52;26.05;;;19.95;;
54517;SDS011;40423;53.176;6.002;2022-11-13T01:51:47;27.70;;;20.35;;
54517;SDS011;40423;53.176;6.002;2022-11-13T01:54:30;23.90;;;18.75;;
54517;SDS011;40423;53.176;6.002;2022-11-13T01:56:57;22.00;;;16.85;;
54517;SDS011;40423;53.176;6.002;2022-11-13T01:59:33;24.20;;;16.88;;
54517;SDS011;40423;53.176;6.002;2022-11-13T02:02:04;24.35;;;18.38;;
54517;SDS011;40423;53.176;6.002;2022-11-13T02:04:30;31.25;;;23.33;;
54517;SDS011;40423;53.176;6.002;2022-11-13T02:07:04;20.42;;;16.10;;
54517;SDS011;40423;53.176;6.002;2022-11-13T02:09:42;23.08;;;18.35;;
54517;SDS011;40423;53.176;6.002;2022-11-13T02:12:11;22.95;;;16.92;;
54517;SDS011;40423;53.176;6.002;2022-11-13T02:14:51;30.23;;;21.08;;
54517;SDS011;40423;53.176;6.002;2022-11-13T02:17:20;22.95;;;17.15;;
54517;SDS011;40423;53.176;6.002;2022-11-13T02:19:53;31.10;;;22.08;;
54517;SDS011;40423;53.176;6.002;2022-11-13T02:22:34;24.17;;;17.42;;
54517;SDS011;40423;53.176;6.002;2022-11-13T02:25:15;29.20;;;18.90;;
54517;SDS011;40423;53.176;6.002;2022-11-13T02:27:43;25.67;;;19.13;;
54517;SDS011;40423;53.176;6.002;2022-11-13T02:30:15;24.95;;;17.92;;
54517;SDS011;40423;53.176;6.002;2022-11-13T02:33:00;19.83;;;15.52;;
54517;SDS011;40423;53.176;6.002;2022-11-13T02:35:27;21.27;;;14.48;;
54517;SDS011;40423;53.176;6.002;2022-11-13T02:38:00;21.48;;;17.25;;
54517;SDS011;40423;53.176;6.002;2022-11-13T02:40:28;19.40;;;13.98;;
54517;SDS011;40423;53.176;6.002;2022-11-13T02:42:55;21.80;;;16.33;;
54517;SDS011;40423;53.176;6.002;2022-11-13T02:45:20;33.75;;;22.10;;
54517;SDS011;40423;53.176;6.002;2022-11-13T02:47:46;23.52;;;18.52;;
54517;SDS011;40423;53.176;6.002;2022-11-13T02:50:12;28.30;;;20.63;;
54517;SDS011;40423;53.176;6.002;2022-11-13T02:52:38;26.02;;;20.80;;
54517;SDS011;40423;53.176;6.002;2022-11-13T02:55:04;23.45;;;18.50;;
54517;SDS011;40423;53.176;6.002;2022-11-13T02:57:30;25.88;;;18.45;;
54517;SDS011;40423;53.176;6.002;2022-11-13T02:59:56;33.15;;;24.27;;
54517;SDS011;40423;53.176;6.002;2022-11-13T03:02:22;21.33;;;16.48;;
54517;SDS011;40423;53.176;6.002;2022-11-13T03:04:48;32.38;;;22.40;;
54517;SDS011;40423;53.176;6.002;2022-11-13T03:07:13;22.73;;;17.80;;
54517;SDS011;40423;53.176;6.002;2022-11-13T03:09:39;33.85;;;22.35;;
54517;SDS011;40423;53.176;6.002;2022-11-13T03:12:06;25.67;;;16.58;;
54517;SDS011;40423;53.176;6.002;2022-11-13T03:14:33;28.63;;;20.77;;
54517;SDS011;40423;53.176;6.002;2022-11-13T03:16:59;30.30;;;21.95;;
54517;SDS011;40423;53.176;6.002;2022-11-13T03:19:24;21.65;;;17.38;;
54517;SDS011;40423;53.176;6.002;2022-11-13T03:21:50;30.35;;;22.75;;
54517;SDS011;40423;53.176;6.002;2022-11-13T03:24:16;25.92;;;19.77;;
54517;SDS011;40423;53.176;6.002;2022-11-13T03:26:41;24.95;;;17.40;;
54517;SDS011;40423;53.176;6.002;2022-11-13T03:29:07;30.08;;;22.55;;
54517;SDS011;40423;53.176;6.002;2022-11-13T03:31:33;25.48;;;18.38;;
54517;SDS011;40423;53.176;6.002;2022-11-13T03:33:59;24.58;;;19.33;;
54517;SDS011;40423;53.176;6.002;2022-11-13T03:36:24;30.73;;;22.50;;
54517;SDS011;40423;53.176;6.002;2022-11-13T03:38:50;33.20;;;21.23;;
54517;SDS011;40423;53.176;6.002;2022-11-13T03:41:16;26.45;;;20.17;;
54517;SDS011;40423;53.176;6.002;2022-11-13T03:43:42;30.35;;;22.50;;
54517;SDS011;40423;53.176;6.002;2022-11-13T03:46:08;25.63;;;18.48;;
54517;SDS011;40423;53.176;6.002;2022-11-13T03:48:33;31.30;;;23.05;;
54517;SDS011;40423;53.176;6.002;2022-11-13T03:50:59;26.02;;;19.83;;
54517;SDS011;40423;53.176;6.002;2022-11-13T03:53:25;26.27;;;18.88;;
54517;SDS011;40423;53.176;6.002;2022-11-13T03:55:51;37.17;;;24.65;;
54517;SDS011;40423;53.176;6.002;2022-11-13T03:58:17;33.08;;;24.67;;
54517;SDS011;40423;53.176;6.002;2022-11-13T04:00:43;26.02;;;19.95;;
54517;SDS011;40423;53.176;6.002;2022-11-13T04:03:10;30.52;;;22.33;;
54517;SDS011;40423;53.176;6.002;2022-11-13T04:05:36;28.58;;;21.40;;
54517;SDS011;40423;53.176;6.002;2022-11-13T04:08:02;34.42;;;24.67;;
54517;SDS011;40423;53.176;6.002;2022-11-13T04:10:28;32.05;;;21.92;;
54517;SDS011;40423;53.176;6.002;2022-11-13T04:12:54;30.00;;;21.27;;
54517;SDS011;40423;53.176;6.002;2022-11-13T04:15:20;29.95;;;24.40;;
54517;SDS011;40423;53.176;6.002;2022-11-13T04:17:45;31.55;;;24.77;;
54517;SDS011;40423;53.176;6.002;2022-11-13T04:20:12;31.90;;;23.27;;
54517;SDS011;40423;53.176;6.002;2022-11-13T04:22:37;30.00;;;22.88;;
54517;SDS011;40423;53.176;6.002;2022-11-13T04:25:03;29.77;;;20.95;;
54517;SDS011;40423;53.176;6.002;2022-11-13T04:27:30;31.40;;;22.60;;
54517;SDS011;40423;53.176;6.002;2022-11-13T04:29:56;30.80;;;23.35;;
54517;SDS011;40423;53.176;6.002;2022-11-13T04:32:21;29.27;;;22.42;;
54517;SDS011;40423;53.176;6.002;2022-11-13T04:34:47;29.77;;;23.50;;
54517;SDS011;40423;53.176;6.002;2022-11-13T04:37:13;29.75;;;22.05;;
54517;SDS011;40423;53.176;6.002;2022-11-13T04:39:39;24.30;;;20.30;;
54517;SDS011;40423;53.176;6.002;2022-11-13T04:42:05;30.02;;;22.10;;
54517;SDS011;40423;53.176;6.002;2022-11-13T04:44:49;32.47;;;22.73;;
54517;SDS011;40423;53.176;6.002;2022-11-13T04:47:14;31.73;;;23.75;;
54517;SDS011;40423;53.176;6.002;2022-11-13T04:49:40;30.75;;;24.17;;
54517;SDS011;40423;53.176;6.002;2022-11-13T04:52:06;31.15;;;23.77;;
54517;SDS011;40423;53.176;6.002;2022-11-13T04:54:31;35.90;;;24.70;;
54517;SDS011;40423;53.176;6.002;2022-11-13T04:56:57;33.83;;;23.02;;
54517;SDS011;40423;53.176;6.002;2022-11-13T04:59:23;30.35;;;22.83;;
54517;SDS011;40423;53.176;6.002;2022-11-13T05:01:48;32.10;;;23.30;;
54517;SDS011;40423;53.176;6.002;2022-11-13T05:04:14;28.48;;;21.60;;
54517;SDS011;40423;53.176;6.002;2022-11-13T05:06:40;37.90;;;25.30;;
54517;SDS011;40423;53.176;6.002;2022-11-13T05:09:06;28.75;;;21.20;;
54517;SDS011;40423;53.176;6.002;2022-11-13T05:11:32;28.70;;;21.33;;
54517;SDS011;40423;53.176;6.002;2022-11-13T05:13:58;33.67;;;24.80;;
54517;SDS011;40423;53.176;6.002;2022-11-13T05:16:23;29.33;;;23.02;;
54517;SDS011;40423;53.176;6.002;2022-11-13T05:18:49;25.35;;;17.77;;
54517;SDS011;40423;53.176;6.002;2022-11-13T05:21:15;33.30;;;23.48;;
54517;SDS011;40423;53.176;6.002;2022-11-13T05:23:41;30.92;;;23.95;;
54517;SDS011;40423;53.176;6.002;2022-11-13T05:26:11;29.42;;;23.95;;
54517;SDS011;40423;53.176;6.002;2022-11-13T05:28:37;30.73;;;23.27;;
54517;SDS011;40423;53.176;6.002;2022-11-13T05:31:04;35.47;;;24.67;;
54517;SDS011;40423;53.176;6.002;2022-11-13T05:33:35;32.35;;;22.50;;
54517;SDS011;40423;53.176;6.002;2022-11-13T05:36:02;30.55;;;23.58;;
54517;SDS011;40423;53.176;6.002;2022-11-13T05:38:32;28.08;;;20.83;;
54517;SDS011;40423;53.176;6.002;2022-11-13T05:41:06;32.25;;;23.77;;
54517;SDS011;40423;53.176;6.002;2022-11-13T05:43:34;32.28;;;23.60;;
54517;SDS011;40423;53.176;6.002;2022-11-13T05:48:27;25.85;;;20.42;;
54517;SDS011;40423;53.176;6.002;2022-11-13T05:50:53;28.90;;;22.38;;
54517;SDS011;40423;53.176;6.002;2022-11-13T05:53:24;26.95;;;20.92;;
54517;SDS011;40423;53.176;6.002;2022-11-13T05:55:50;31.10;;;23.00;;
54517;SDS011;40423;53.176;6.002;2022-11-13T05:58:16;25.67;;;20.98;;
54517;SDS011;40423;53.176;6.002;2022-11-13T06:00:41;34.38;;;23.20;;
54517;SDS011;40423;53.176;6.002;2022-11-13T06:03:07;28.25;;;20.48;;
54517;SDS011;40423;53.176;6.002;2022-11-13T06:05:36;36.42;;;25.08;;
54517;SDS011;40423;53.176;6.002;2022-11-13T06:08:01;32.50;;;23.83;;
54517;SDS011;40423;53.176;6.002;2022-11-13T06:10:27;26.20;;;19.98;;
54517;SDS011;40423;53.176;6.002;2022-11-13T06:12:53;28.17;;;21.23;;
54517;SDS011;40423;53.176;6.002;2022-11-13T06:15:19;38.45;;;23.88;;
54517;SDS011;40423;53.176;6.002;2022-11-13T06:17:45;29.50;;;21.83;;
54517;SDS011;40423;53.176;6.002;2022-11-13T06:20:11;34.33;;;24.02;;
54517;SDS011;40423;53.176;6.002;2022-11-13T06:22:36;21.38;;;16.08;;
54517;SDS011;40423;53.176;6.002;2022-11-13T06:25:02;30.67;;;21.58;;
54517;SDS011;40423;53.176;6.002;2022-11-13T06:27:28;25.17;;;18.83;;
54517;SDS011;40423;53.176;6.002;2022-11-13T06:29:53;22.15;;;18.23;;
54517;SDS011;40423;53.176;6.002;2022-11-13T06:32:19;26.65;;;18.52;;
54517;SDS011;40423;53.176;6.002;2022-11-13T06:34:45;33.20;;;22.23;;
54517;SDS011;40423;53.176;6.002;2022-11-13T06:37:10;22.75;;;16.27;;
54517;SDS011;40423;53.176;6.002;2022-11-13T06:39:36;23.92;;;18.45;;
54517;SDS011;40423;53.176;6.002;2022-11-13T06:42:02;22.02;;;17.48;;
54517;SDS011;40423;53.176;6.002;2022-11-13T06:44:27;31.98;;;20.83;;
54517;SDS011;40423;53.176;6.002;2022-11-13T06:46:53;20.98;;;15.82;;
54517;SDS011;40423;53.176;6.002;2022-11-13T06:49:19;21.08;;;17.20;;
54517;SDS011;40423;53.176;6.002;2022-11-13T06:51:44;28.38;;;19.35;;
54517;SDS011;40423;53.176;6.002;2022-11-13T06:54:10;26.25;;;18.70;;
54517;SDS011;40423;53.176;6.002;2022-11-13T06:56:37;31.25;;;20.63;;
54517;SDS011;40423;53.176;6.002;2022-11-13T06:59:08;23.58;;;18.25;;
54517;SDS011;40423;53.176;6.002;2022-11-13T07:01:33;24.85;;;17.08;;
54517;SDS011;40423;53.176;6.002;2022-11-13T07:03:59;22.85;;;17.20;;
54517;SDS011;40423;53.176;6.002;2022-11-13T07:06:24;28.30;;;18.13;;
54517;SDS011;40423;53.176;6.002;2022-11-13T07:08:50;31.73;;;21.70;;
54517;SDS011;40423;53.176;6.002;2022-11-13T07:11:18;26.58;;;20.42;;
54517;SDS011;40423;53.176;6.002;2022-11-13T07:13:45;21.10;;;16.65;;
54517;SDS011;40423;53.176;6.002;2022-11-13T07:16:12;27.17;;;19.48;;
54517;SDS011;40423;53.176;6.002;2022-11-13T07:18:38;26.50;;;20.35;;
54517;SDS011;40423;53.176;6.002;2022-11-13T07:21:05;28.52;;;20.38;;
54517;SDS011;40423;53.176;6.002;2022-11-13T07:23:33;27.10;;;19.73;;
54517;SDS011;40423;53.176;6.002;2022-11-13T07:26:01;25.55;;;19.00;;
54517;SDS011;40423;53.176;6.002;2022-11-13T07:28:28;27.02;;;20.40;;
54517;SDS011;40423;53.176;6.002;2022-11-13T07:30:57;26.13;;;20.10;;
54517;SDS011;40423;53.176;6.002;2022-11-13T07:33:23;24.52;;;18.30;;
54517;SDS011;40423;53.176;6.002;2022-11-13T07:35:51;25.33;;;18.92;;
54517;SDS011;40423;53.176;6.002;2022-11-13T07:38:18;24.25;;;18.42;;
54517;SDS011;40423;53.176;6.002;2022-11-13T07:40:44;24.15;;;18.95;;
54517;SDS011;40423;53.176;6.002;2022-11-13T07:43:10;24.25;;;19.42;;
54517;SDS011;40423;53.176;6.002;2022-11-13T07:45:35;23.77;;;18.35;;
54517;SDS011;40423;53.176;6.002;2022-11-13T07:48:01;25.95;;;19.23;;
54517;SDS011;40423;53.176;6.002;2022-11-13T07:50:29;25.55;;;18.25;;
54517;SDS011;40423;53.176;6.002;2022-11-13T07:52:57;27.15;;;18.88;;
54517;SDS011;40423;53.176;6.002;2022-11-13T07:55:24;24.52;;;19.00;;
54517;SDS011;40423;53.176;6.002;2022-11-13T07:57:50;24.67;;;19.58;;
54517;SDS011;40423;53.176;6.002;2022-11-13T08:00:19;21.58;;;17.95;;
54517;SDS011;40423;53.176;6.002;2022-11-13T08:02:45;27.88;;;19.25;;
54517;SDS011;40423;53.176;6.002;2022-11-13T08:05:12;24.30;;;18.63;;
54517;SDS011;40423;53.176;6.002;2022-11-13T08:07:38;25.33;;;17.52;;
54517;SDS011;40423;53.176;6.002;2022-11-13T08:10:04;22.45;;;17.50;;
54517;SDS011;40423;53.176;6.002;2022-11-13T08:12:30;26.95;;;18.23;;
54517;SDS011;40423;53.176;6.002;2022-11-13T08:14:56;25.25;;;16.10;;
54517;SDS011;40423;53.176;6.002;2022-11-13T08:17:21;23.30;;;18.20;;
54517;SDS011;40423;53.176;6.002;2022-11-13T08:19:47;22.05;;;16.67;;
54517;SDS011;40423;53.176;6.002;2022-11-13T08:22:13;23.15;;;17.15;;
54517;SDS011;40423;53.176;6.002;2022-11-13T08:24:38;24.30;;;17.52;;
54517;SDS011;40423;53.176;6.002;2022-11-13T08:27:05;19.88;;;15.95;;
54517;SDS011;40423;53.176;6.002;2022-11-13T08:29:30;23.92;;;17.02;;
54517;SDS011;40423;53.176;6.002;2022-11-13T08:31:56;22.10;;;15.77;;
54517;SDS011;40423;53.176;6.002;2022-11-13T08:34:22;19.15;;;15.43;;
54517;SDS011;40423;53.176;6.002;2022-11-13T08:36:48;19.67;;;15.98;;
54517;SDS011;40423;53.176;6.002;2022-11-13T08:39:13;19.50;;;15.90;;
54517;SDS011;40423;53.176;6.002;2022-11-13T08:41:39;20.92;;;15.85;;
54517;SDS011;40423;53.176;6.002;2022-11-13T08:44:05;22.67;;;15.27;;
54517;SDS011;40423;53.176;6.002;2022-11-13T08:46:31;22.45;;;16.90;;
54517;SDS011;40423;53.176;6.002;2022-11-13T08:48:56;22.65;;;16.17;;
54517;SDS011;40423;53.176;6.002;2022-11-13T08:51:24;17.65;;;14.82;;
54517;SDS011;40423;53.176;6.002;2022-11-13T08:53:50;17.52;;;13.85;;
54517;SDS011;40423;53.176;6.002;2022-11-13T08:56:16;20.48;;;14.40;;
54517;SDS011;40423;53.176;6.002;2022-11-13T08:58:41;20.48;;;14.07;;
54517;SDS011;40423;53.176;6.002;2022-11-13T09:01:07;18.13;;;14.25;;
54517;SDS011;40423;53.176;6.002;2022-11-13T09:03:33;19.17;;;15.32;;
54517;SDS011;40423;53.176;6.002;2022-11-13T09:06:04;17.17;;;14.40;;
54517;SDS011;40423;53.176;6.002;2022-11-13T09:08:33;19.52;;;15.05;;
54517;SDS011;40423;53.176;6.002;2022-11-13T09:11:03;20.48;;;14.50;;
54517;SDS011;40423;53.176;6.002;2022-11-13T09:13:29;18.15;;;13.80;;
54517;SDS011;40423;53.176;6.002;2022-11-13T09:15:59;17.55;;;12.63;;
54517;SDS011;40423;53.176;6.002;2022-11-13T09:18:26;15.80;;;13.45;;
54517;SDS011;40423;53.176;6.002;2022-11-13T09:20:52;16.17;;;11.82;;
54517;SDS011;40423;53.176;6.002;2022-11-13T09:23:19;17.30;;;11.80;;
54517;SDS011;40423;53.176;6.002;2022-11-13T09:25:45;14.48;;;11.30;;
54517;SDS011;40423;53.176;6.002;2022-11-13T09:28:10;14.60;;;11.25;;
54517;SDS011;40423;53.176;6.002;2022-11-13T09:30:37;14.50;;;11.20;;
54517;SDS011;40423;53.176;6.002;2022-11-13T09:33:03;14.18;;;11.27;;
54517;SDS011;40423;53.176;6.002;2022-11-13T09:35:30;14.27;;;11.70;;
54517;SDS011;40423;53.176;6.002;2022-11-13T09:43:45;14.05;;;10.60;;
54517;SDS011;40423;53.176;6.002;2022-11-13T09:54:47;19.70;;;11.20;;
54517;SDS011;40423;53.176;6.002;2022-11-13T10:08:13;10.68;;;8.90;;
54517;SDS011;40423;53.176;6.002;2022-11-13T10:13:19;10.95;;;8.50;;
54517;SDS011;40423;53.176;6.002;2022-11-13T10:15:53;9.73;;;8.15;;
54517;SDS011;40423;53.176;6.002;2022-11-13T10:18:32;10.05;;;8.98;;
54517;SDS011;40423;53.176;6.002;2022-11-13T10:23:40;11.88;;;8.90;;
54517;SDS011;40423;53.176;6.002;2022-11-13T10:26:15;10.38;;;9.00;;
54517;SDS011;40423;53.176;6.002;2022-11-13T10:28:55;10.32;;;9.10;;
54517;SDS011;40423;53.176;6.002;2022-11-13T10:31:25;13.15;;;8.27;;
54517;SDS011;40423;53.176;6.002;2022-11-13T10:33:51;9.68;;;8.40;;
54517;SDS011;40423;53.176;6.002;2022-11-13T10:36:33;10.25;;;8.50;;
54517;SDS011;40423;53.176;6.002;2022-11-13T10:39:07;9.45;;;8.35;;
54517;SDS011;40423;53.176;6.002;2022-11-13T10:41:43;10.65;;;8.45;;
54517;SDS011;40423;53.176;6.002;2022-11-13T10:44:20;7.88;;;7.05;;
54517;SDS011;40423;53.176;6.002;2022-11-13T10:47:14;10.82;;;7.93;;
54517;SDS011;40423;53.176;6.002;2022-11-13T10:49:44;9.30;;;7.55;;
54517;SDS011;40423;53.176;6.002;2022-11-13T10:52:20;8.77;;;6.78;;
54517;SDS011;40423;53.176;6.002;2022-11-13T10:57:56;10.43;;;7.20;;
54517;SDS011;40423;53.176;6.002;2022-11-13T11:00:25;9.98;;;7.32;;
54517;SDS011;40423;53.176;6.002;2022-11-13T11:02:57;7.75;;;6.43;;
54517;SDS011;40423;53.176;6.002;2022-11-13T11:05:23;8.45;;;6.25;;
54517;SDS011;40423;53.176;6.002;2022-11-13T11:07:50;10.05;;;7.20;;
54517;SDS011;40423;53.176;6.002;2022-11-13T11:10:31;7.70;;;6.18;;
54517;SDS011;40423;53.176;6.002;2022-11-13T11:13:01;8.65;;;6.85;;
54517;SDS011;40423;53.176;6.002;2022-11-13T11:15:45;8.82;;;6.70;;
54517;SDS011;40423;53.176;6.002;2022-11-13T11:18:20;8.38;;;6.05;;
54517;SDS011;40423;53.176;6.002;2022-11-13T11:20:51;7.22;;;6.25;;
54517;SDS011;40423;53.176;6.002;2022-11-13T11:26:06;7.90;;;6.22;;
54517;SDS011;40423;53.176;6.002;2022-11-13T11:33:59;7.85;;;6.00;;
54517;SDS011;40423;53.176;6.002;2022-11-13T11:36:34;7.00;;;5.35;;
54517;SDS011;40423;53.176;6.002;2022-11-13T11:39:27;8.32;;;5.65;;
54517;SDS011;40423;53.176;6.002;2022-11-13T11:42:26;7.63;;;5.85;;
54517;SDS011;40423;53.176;6.002;2022-11-13T11:45:11;8.77;;;5.70;;
54517;SDS011;40423;53.176;6.002;2022-11-13T11:47:40;8.05;;;5.25;;
54517;SDS011;40423;53.176;6.002;2022-11-13T11:50:11;12.43;;;8.43;;
54517;SDS011;40423;53.176;6.002;2022-11-13T12:00:48;7.22;;;5.50;;
54517;SDS011;40423;53.176;6.002;2022-11-13T12:03:28;9.05;;;6.20;;
54517;SDS011;40423;53.176;6.002;2022-11-13T12:06:26;9.95;;;7.97;;
54517;SDS011;40423;53.176;6.002;2022-11-13T12:15:09;9.32;;;7.30;;
54517;SDS011;40423;53.176;6.002;2022-11-13T12:26:06;7.55;;;6.70;;
54517;SDS011;40423;53.176;6.002;2022-11-13T12:31:46;9.18;;;7.15;;
54517;SDS011;40423;53.176;6.002;2022-11-13T12:34:27;8.65;;;7.18;;
54517;SDS011;40423;53.176;6.002;2022-11-13T12:37:06;7.68;;;6.65;;
54517;SDS011;40423;53.176;6.002;2022-11-13T12:40:11;9.50;;;7.07;;
54517;SDS011;40423;53.176;6.002;2022-11-13T12:42:41;8.32;;;7.40;;
54517;SDS011;40423;53.176;6.002;2022-11-13T12:48:24;11.73;;;7.40;;
54517;SDS011;40423;53.176;6.002;2022-11-13T12:50:57;11.82;;;8.05;;
54517;SDS011;40423;53.176;6.002;2022-11-13T13:01:27;11.30;;;8.43;;
54517;SDS011;40423;53.176;6.002;2022-11-13T13:07:33;8.55;;;6.55;;
54517;SDS011;40423;53.176;6.002;2022-11-13T13:10:22;7.18;;;6.25;;
54517;SDS011;40423;53.176;6.002;2022-11-13T13:16:08;8.07;;;6.82;;
54517;SDS011;40423;53.176;6.002;2022-11-13T13:18:36;8.75;;;7.15;;
54517;SDS011;40423;53.176;6.002;2022-11-13T13:23:37;7.70;;;5.70;;
54517;SDS011;40423;53.176;6.002;2022-11-13T13:28:37;8.25;;;6.40;;
54517;SDS011;40423;53.176;6.002;2022-11-13T13:31:17;7.45;;;6.30;;
54517;SDS011;40423;53.176;6.002;2022-11-13T13:36:44;8.77;;;6.75;;
54517;SDS011;40423;53.176;6.002;2022-11-13T13:47:23;15.05;;;10.05;;
54517;SDS011;40423;53.176;6.002;2022-11-13T13:49:55;11.85;;;8.90;;
54517;SDS011;40423;53.176;6.002;2022-11-13T13:52:25;10.73;;;8.20;;
54517;SDS011;40423;53.176;6.002;2022-11-13T13:54:55;10.18;;;8.35;;
54517;SDS011;40423;53.176;6.002;2022-11-13T13:57:22;8.57;;;7.50;;
54517;SDS011;40423;53.176;6.002;2022-11-13T13:59:49;8.90;;;6.75;;
54517;SDS011;40423;53.176;6.002;2022-11-13T14:02:16;8.15;;;6.70;;
54517;SDS011;40423;53.176;6.002;2022-11-13T14:04:44;7.93;;;7.00;;
54517;SDS011;40423;53.176;6.002;2022-11-13T14:10:07;9.35;;;6.93;;
54517;SDS011;40423;53.176;6.002;2022-11-13T14:12:39;8.10;;;6.63;;
54517;SDS011;40423;53.176;6.002;2022-11-13T14:15:16;9.68;;;7.50;;
54517;SDS011;40423;53.176;6.002;2022-11-13T14:18:02;9.30;;;6.65;;
54517;SDS011;40423;53.176;6.002;2022-11-13T14:20:33;9.88;;;6.88;;
54517;SDS011;40423;53.176;6.002;2022-11-13T14:23:11;9.15;;;7.00;;
54517;SDS011;40423;53.176;6.002;2022-11-13T14:25:41;9.90;;;6.68;;
54517;SDS011;40423;53.176;6.002;2022-11-13T14:28:26;8.95;;;7.72;;
54517;SDS011;40423;53.176;6.002;2022-11-13T14:31:02;9.20;;;7.65;;
54517;SDS011;40423;53.176;6.002;2022-11-13T14:33:31;10.20;;;7.00;;
54517;SDS011;40423;53.176;6.002;2022-11-13T14:36:27;9.30;;;7.50;;
54517;SDS011;40423;53.176;6.002;2022-11-13T14:38:55;13.55;;;9.15;;
54517;SDS011;40423;53.176;6.002;2022-11-13T14:44:11;11.63;;;8.50;;
54517;SDS011;40423;53.176;6.002;2022-11-13T14:46:42;11.50;;;8.88;;
54517;SDS011;40423;53.176;6.002;2022-11-13T14:49:12;12.20;;;8.48;;
54517;SDS011;40423;53.176;6.002;2022-11-13T14:51:53;12.02;;;9.63;;
54517;SDS011;40423;53.176;6.002;2022-11-13T14:54:35;11.10;;;9.40;;
54517;SDS011;40423;53.176;6.002;2022-11-13T14:57:09;11.43;;;8.95;;
54517;SDS011;40423;53.176;6.002;2022-11-13T15:02:01;13.32;;;9.82;;
54517;SDS011;40423;53.176;6.002;2022-11-13T15:04:28;11.70;;;9.65;;
54517;SDS011;40423;53.176;6.002;2022-11-13T15:06:59;11.50;;;9.70;;
54517;SDS011;40423;53.176;6.002;2022-11-13T15:09:25;10.02;;;8.73;;
54517;SDS011;40423;53.176;6.002;2022-11-13T15:11:53;12.18;;;9.55;;
54517;SDS011;40423;53.176;6.002;2022-11-13T15:14:19;10.82;;;9.27;;
54517;SDS011;40423;53.176;6.002;2022-11-13T15:16:46;10.23;;;8.57;;
54517;SDS011;40423;53.176;6.002;2022-11-13T15:19:28;13.73;;;9.90;;
54517;SDS011;40423;53.176;6.002;2022-11-13T15:21:58;14.40;;;9.75;;
54517;SDS011;40423;53.176;6.002;2022-11-13T15:24:24;10.55;;;8.32;;
54517;SDS011;40423;53.176;6.002;2022-11-13T15:26:50;13.25;;;10.20;;
54517;SDS011;40423;53.176;6.002;2022-11-13T15:29:16;13.23;;;9.57;;
54517;SDS011;40423;53.176;6.002;2022-11-13T15:31:43;10.27;;;8.90;;
54517;SDS011;40423;53.176;6.002;2022-11-13T15:34:10;11.50;;;9.25;;
54517;SDS011;40423;53.176;6.002;2022-11-13T15:36:37;10.63;;;9.40;;
54517;SDS011;40423;53.176;6.002;2022-11-13T15:39:04;13.43;;;9.52;;
54517;SDS011;40423;53.176;6.002;2022-11-13T15:41:31;10.02;;;8.40;;
54517;SDS011;40423;53.176;6.002;2022-11-13T15:43:58;11.52;;;9.63;;
54517;SDS011;40423;53.176;6.002;2022-11-13T15:46:25;11.60;;;9.40;;
54517;SDS011;40423;53.176;6.002;2022-11-13T15:48:51;13.80;;;10.10;;
54517;SDS011;40423;53.176;6.002;2022-11-13T15:54:23;14.07;;;10.40;;
54517;SDS011;40423;53.176;6.002;2022-11-13T15:56:50;15.57;;;13.88;;
54517;SDS011;40423;53.176;6.002;2022-11-13T15:59:16;13.98;;;12.50;;
54517;SDS011;40423;53.176;6.002;2022-11-13T16:01:41;13.98;;;11.52;;
54517;SDS011;40423;53.176;6.002;2022-11-13T16:04:07;13.15;;;11.15;;
54517;SDS011;40423;53.176;6.002;2022-11-13T16:06:35;15.57;;;11.13;;
54517;SDS011;40423;53.176;6.002;2022-11-13T16:09:02;13.63;;;10.82;;
54517;SDS011;40423;53.176;6.002;2022-11-13T16:11:28;13.95;;;11.32;;
54517;SDS011;40423;53.176;6.002;2022-11-13T16:13:58;12.10;;;10.05;;
54517;SDS011;40423;53.176;6.002;2022-11-13T16:16:25;12.38;;;11.10;;
54517;SDS011;40423;53.176;6.002;2022-11-13T16:18:53;13.70;;;11.20;;
54517;SDS011;40423;53.176;6.002;2022-11-13T16:21:19;14.32;;;11.50;;
54517;SDS011;40423;53.176;6.002;2022-11-13T16:23:45;14.30;;;11.90;;
54517;SDS011;40423;53.176;6.002;2022-11-13T16:26:12;14.13;;;11.13;;
54517;SDS011;40423;53.176;6.002;2022-11-13T16:28:41;13.18;;;11.00;;
54517;SDS011;40423;53.176;6.002;2022-11-13T16:31:07;17.40;;;11.82;;